createdAt,value
2022-08-26T00:00:51.369Z,13.80
2022-08-26T00:03:21.600Z,14.55
2022-08-26T00:05:51.100Z,13.23
2022-08-26T00:08:21.348Z,13.60
2022-08-26T00:10:50.421Z,14.02
2022-08-26T00:13:19.452Z,13.70
2022-08-26T00:15:47.999Z,13.65
2022-08-26T00:18:22.378Z,13.00
2022-08-26T00:20:51.636Z,13.40
2022-08-26T00:23:20.484Z,13.63
2022-08-26T00:25:52.973Z,14.32
2022-08-26T00:28:22.138Z,13.02
2022-08-26T00:30:51.729Z,13.82
2022-08-26T00:33:21.288Z,13.60
2022-08-26T00:35:49.744Z,13.13
2022-08-26T00:38:19.492Z,12.75
2022-08-26T00:40:50.887Z,12.80
2022-08-26T00:43:19.946Z,12.75
2022-08-26T00:46:04.879Z,13.40
2022-08-26T00:48:36.263Z,13.55
2022-08-26T00:51:28.290Z,14.07
2022-08-26T00:54:03.908Z,13.88
2022-08-26T00:56:38.241Z,14.15
2022-08-26T00:59:11.802Z,13.52
2022-08-26T01:01:44.401Z,13.82
2022-08-26T01:04:17.779Z,13.73
2022-08-26T01:06:48.024Z,14.25
2022-08-26T01:09:16.625Z,13.73
2022-08-26T01:11:47.047Z,15.15
2022-08-26T01:14:17.350Z,14.50
2022-08-26T01:16:49.325Z,14.80
2022-08-26T01:19:36.237Z,15.23
2022-08-26T01:22:19.902Z,14.50
2022-08-26T01:24:49.809Z,15.57
2022-08-26T01:27:20.647Z,15.05
2022-08-26T01:29:51.007Z,15.35
2022-08-26T01:32:23.421Z,15.43
2022-08-26T01:34:52.680Z,15.55
2022-08-26T01:37:24.244Z,15.20
2022-08-26T01:39:55.337Z,14.23
2022-08-26T01:42:26.492Z,15.88
2022-08-26T01:45:00.966Z,16.05
2022-08-26T01:47:33.529Z,15.93
2022-08-26T01:50:06.170Z,15.52
2022-08-26T01:52:38.009Z,16.20
2022-08-26T01:55:06.805Z,15.23
2022-08-26T01:57:36.986Z,16.33
2022-08-26T02:00:08.964Z,17.58
2022-08-26T02:04:34.628Z,15.23
2022-08-26T02:07:07.944Z,16.00
2022-08-26T02:09:41.687Z,14.95
2022-08-26T02:12:12.625Z,14.65
2022-08-26T02:17:14.705Z,14.02
2022-08-26T02:19:47.474Z,14.02
2022-08-26T02:22:19.510Z,14.40
2022-08-26T02:24:54.456Z,13.10
2022-08-26T02:27:32.093Z,12.82
2022-08-26T02:30:13.525Z,11.98
2022-08-26T02:32:43.099Z,12.32
2022-08-26T02:35:13.667Z,12.98
2022-08-26T02:37:47.050Z,12.50
2022-08-26T02:40:21.732Z,12.30
2022-08-26T02:42:53.049Z,12.75
2022-08-26T02:45:25.224Z,11.70
2022-08-26T02:47:54.165Z,12.85
2022-08-26T02:50:25.933Z,11.63
2022-08-26T02:52:54.013Z,12.77
2022-08-26T02:55:22.218Z,12.35
2022-08-26T02:57:52.951Z,11.70
2022-08-26T03:00:21.558Z,12.50
2022-08-26T03:02:51.741Z,11.02
2022-08-26T03:05:22.238Z,10.75
2022-08-26T03:07:53.270Z,11.73
2022-08-26T03:10:22.127Z,11.73
2022-08-26T03:12:50.824Z,10.10
2022-08-26T03:15:21.186Z,10.40
2022-08-26T03:17:50.407Z,11.10
2022-08-26T03:20:19.131Z,11.52
2022-08-26T03:22:48.074Z,11.82
2022-08-26T03:25:18.239Z,11.43
2022-08-26T03:27:47.159Z,12.70
2022-08-26T03:30:35.293Z,13.82
2022-08-26T03:33:04.052Z,13.75
2022-08-26T03:35:33.956Z,14.50
2022-08-26T03:38:03.525Z,13.60
2022-08-26T03:40:48.814Z,14.65
2022-08-26T03:43:19.703Z,13.70
2022-08-26T03:45:47.750Z,14.07
2022-08-26T03:48:15.582Z,14.20
2022-08-26T03:50:44.574Z,13.35
2022-08-26T03:53:13.250Z,14.80
2022-08-26T03:55:44.004Z,11.98
2022-08-26T03:58:13.331Z,11.93
2022-08-26T04:00:41.795Z,12.27
2022-08-26T04:03:15.667Z,11.75
2022-08-26T04:05:51.530Z,11.27
2022-08-26T04:08:19.410Z,11.93
2022-08-26T04:10:47.909Z,11.07
2022-08-26T04:13:19.904Z,11.10
2022-08-26T04:15:47.702Z,11.30
2022-08-26T04:18:16.897Z,11.70
2022-08-26T04:20:46.320Z,12.55
2022-08-26T04:23:16.801Z,11.27
2022-08-26T04:25:45.474Z,10.63
2022-08-26T04:28:14.889Z,11.80
2022-08-26T04:30:43.206Z,10.48
2022-08-26T04:33:14.566Z,11.35
2022-08-26T04:35:44.168Z,12.73
2022-08-26T04:38:13.056Z,11.98
2022-08-26T04:40:46.656Z,12.25
2022-08-26T04:43:16.048Z,11.18
2022-08-26T04:45:44.052Z,10.60
2022-08-26T04:48:12.458Z,9.90
2022-08-26T04:50:49.354Z,10.60
2022-08-26T04:53:17.523Z,10.05
2022-08-26T04:55:49.836Z,10.23
2022-08-26T04:58:24.878Z,10.02
2022-08-26T05:00:55.485Z,11.15
2022-08-26T05:03:25.152Z,10.48
2022-08-26T05:05:54.247Z,10.85
2022-08-26T05:08:23.089Z,12.27
2022-08-26T05:10:57.132Z,10.95
2022-08-26T05:13:27.629Z,10.80
2022-08-26T05:16:01.154Z,10.85
2022-08-26T05:18:30.455Z,11.13
2022-08-26T05:20:58.208Z,10.35
2022-08-26T05:23:26.975Z,11.18
2022-08-26T05:25:59.227Z,11.77
2022-08-26T05:28:30.045Z,11.10
2022-08-26T05:30:58.641Z,11.18
2022-08-26T05:33:26.479Z,12.75
2022-08-26T05:35:54.712Z,13.15
2022-08-26T05:38:24.351Z,14.77
2022-08-26T05:40:55.051Z,13.52
2022-08-26T05:43:23.744Z,14.07
2022-08-26T05:45:52.366Z,14.93
2022-08-26T05:48:24.572Z,15.77
2022-08-26T05:50:54.417Z,14.38
2022-08-26T05:53:25.945Z,16.25
2022-08-26T05:55:55.952Z,14.63
2022-08-26T05:58:24.356Z,13.05
2022-08-26T06:01:02.448Z,14.07
2022-08-26T06:03:33.393Z,15.95
2022-08-26T06:08:38.892Z,14.63
2022-08-26T06:11:18.352Z,14.55
2022-08-26T06:13:46.939Z,13.00
2022-08-26T06:16:18.775Z,13.43
2022-08-26T06:18:48.837Z,13.15
2022-08-26T06:21:21.982Z,13.98
2022-08-26T06:24:11.700Z,12.57
2022-08-26T06:26:42.689Z,13.63
2022-08-26T06:29:10.902Z,13.20
2022-08-26T06:31:43.875Z,12.93
2022-08-26T06:34:12.175Z,12.32
2022-08-26T06:36:43.951Z,12.10
2022-08-26T06:39:14.674Z,13.70
2022-08-26T06:41:44.946Z,12.60
2022-08-26T06:44:19.504Z,13.30
2022-08-26T06:46:50.661Z,13.50
2022-08-26T06:49:20.450Z,12.97
2022-08-26T06:52:00.189Z,13.60
2022-08-26T06:54:31.818Z,13.77
2022-08-26T06:57:00.293Z,13.55
2022-08-26T06:59:28.361Z,13.27
2022-08-26T07:01:57.120Z,13.02
2022-08-26T07:04:27.751Z,13.32
2022-08-26T07:06:56.515Z,13.15
2022-08-26T07:09:33.072Z,12.55
2022-08-26T07:12:01.912Z,13.65
2022-08-26T07:14:31.817Z,13.95
2022-08-26T07:17:01.441Z,13.83
2022-08-26T07:19:31.606Z,14.45
2022-08-26T07:22:04.808Z,13.57
2022-08-26T07:24:40.294Z,13.75
2022-08-26T07:27:14.945Z,13.38
2022-08-26T07:29:43.748Z,14.80
2022-08-26T07:32:13.885Z,14.82
2022-08-26T07:34:43.084Z,14.13
2022-08-26T07:37:11.943Z,14.43
2022-08-26T07:39:41.763Z,15.70
2022-08-26T07:42:14.185Z,15.43
2022-08-26T07:44:43.970Z,14.93
2022-08-26T07:47:25.795Z,14.48
2022-08-26T07:49:57.524Z,14.98
2022-08-26T07:52:28.558Z,15.32
2022-08-26T07:54:59.405Z,15.57
2022-08-26T07:57:28.975Z,15.10
2022-08-26T07:59:57.535Z,13.45
2022-08-26T08:02:28.502Z,15.45
2022-08-26T08:07:38.687Z,14.90
2022-08-26T08:10:18.703Z,15.00
2022-08-26T08:12:52.017Z,15.35
2022-08-26T08:15:24.964Z,16.48
2022-08-26T08:17:55.614Z,15.60
2022-08-26T08:20:27.353Z,15.45
2022-08-26T08:22:56.511Z,14.45
2022-08-26T08:25:26.016Z,15.03
2022-08-26T08:27:53.780Z,12.80
2022-08-26T08:30:23.850Z,13.23
2022-08-26T08:32:53.267Z,13.57
2022-08-26T08:35:23.111Z,14.00
2022-08-26T08:37:54.819Z,14.23
2022-08-26T08:40:25.891Z,14.55
2022-08-26T08:43:07.202Z,15.23
2022-08-26T08:48:33.763Z,13.20
2022-08-26T08:51:30.207Z,13.95
2022-08-26T08:54:01.497Z,12.80
2022-08-26T08:56:41.845Z,12.15
2022-08-26T08:59:20.374Z,11.48
2022-08-26T09:01:54.489Z,10.63
2022-08-26T09:05:00.904Z,9.60
2022-08-26T09:07:36.386Z,9.75
2022-08-26T09:10:07.765Z,8.55
2022-08-26T09:12:36.175Z,9.05
2022-08-26T09:15:30.198Z,7.43
2022-08-26T09:18:23.604Z,7.32
2022-08-26T09:20:51.777Z,7.82
2022-08-26T09:23:19.954Z,7.13
2022-08-26T09:26:14.737Z,6.82
2022-08-26T09:28:48.308Z,5.45
2022-08-26T09:31:32.496Z,5.30
2022-08-26T09:34:17.427Z,5.47
2022-08-26T09:39:28.282Z,5.63
2022-08-26T09:42:17.139Z,5.47
2022-08-26T09:44:59.940Z,6.03
2022-08-26T09:47:39.214Z,5.50
2022-08-26T09:50:34.949Z,5.55
2022-08-26T09:53:17.335Z,4.80
2022-08-26T09:56:10.562Z,5.07
2022-08-26T09:58:41.884Z,5.30
2022-08-26T10:01:25.602Z,6.07
2022-08-26T10:04:12.390Z,6.45
2022-08-26T10:06:55.066Z,6.50
2022-08-26T10:09:25.800Z,6.13
2022-08-26T10:11:57.789Z,6.05
2022-08-26T10:17:50.876Z,5.07
2022-08-26T10:20:34.622Z,5.63
2022-08-26T10:23:06.558Z,5.32
2022-08-26T10:25:57.976Z,5.40
2022-08-26T10:28:48.630Z,5.50
2022-08-26T10:31:38.454Z,5.15
2022-08-26T10:34:12.341Z,5.50
2022-08-26T10:37:15.883Z,5.72
2022-08-26T10:40:01.040Z,5.55
2022-08-26T10:42:39.976Z,5.97
2022-08-26T10:45:15.045Z,5.93
2022-08-26T10:48:03.187Z,5.72
2022-08-26T10:50:43.169Z,5.78
2022-08-26T10:53:25.151Z,6.10
2022-08-26T10:55:58.788Z,5.85
2022-08-26T10:59:12.447Z,5.82
2022-08-26T11:01:52.540Z,6.40
2022-08-26T11:04:59.590Z,6.50
2022-08-26T11:07:29.170Z,6.40
2022-08-26T11:10:03.384Z,6.20
2022-08-26T11:12:37.378Z,5.75
2022-08-26T11:15:11.280Z,5.65
2022-08-26T11:17:45.179Z,5.97
2022-08-26T11:20:35.433Z,6.03
2022-08-26T11:23:12.542Z,5.82
2022-08-26T11:26:10.185Z,5.40
2022-08-26T11:28:45.053Z,6.30
2022-08-26T11:31:19.072Z,5.93
2022-08-26T11:33:54.155Z,5.97
2022-08-26T11:36:46.149Z,6.70
2022-08-26T11:39:55.125Z,5.95
2022-08-26T11:42:42.816Z,6.43
2022-08-26T11:45:31.415Z,5.93
2022-08-26T11:48:14.764Z,6.65
2022-08-26T11:50:54.789Z,6.38
2022-08-26T11:53:24.200Z,6.28
2022-08-26T11:55:56.598Z,5.97
2022-08-26T11:58:29.582Z,6.28
2022-08-26T12:01:09.765Z,5.55
2022-08-26T12:03:45.621Z,5.55
2022-08-26T12:06:22.927Z,6.53
2022-08-26T12:08:53.825Z,6.25
2022-08-26T12:11:27.283Z,6.55
2022-08-26T12:14:19.711Z,7.00
2022-08-26T12:16:47.716Z,7.45
2022-08-26T12:19:33.287Z,6.57
2022-08-26T12:22:06.612Z,7.47
2022-08-26T12:24:35.202Z,5.68
2022-08-26T12:27:15.806Z,6.45
2022-08-26T12:29:48.592Z,5.43
2022-08-26T12:32:19.005Z,5.65
2022-08-26T12:34:49.106Z,7.10
2022-08-26T12:37:18.981Z,5.97
2022-08-26T12:39:49.968Z,6.13
2022-08-26T12:42:17.794Z,5.28
2022-08-26T12:45:00.545Z,5.63
2022-08-26T12:47:41.995Z,5.25
2022-08-26T12:50:11.132Z,5.80
2022-08-26T12:52:58.449Z,5.68
2022-08-26T12:55:27.826Z,5.38
2022-08-26T12:58:29.978Z,5.47
2022-08-26T13:01:18.599Z,5.90
2022-08-26T13:03:50.216Z,5.60
2022-08-26T13:06:22.294Z,5.95
2022-08-26T13:08:51.541Z,5.75
2022-08-26T13:11:27.992Z,6.03
2022-08-26T13:14:07.138Z,6.32
2022-08-26T13:16:36.740Z,5.70
2022-08-26T13:19:17.486Z,7.00
2022-08-26T13:21:48.043Z,5.95
2022-08-26T13:24:25.712Z,6.68
2022-08-26T13:26:54.181Z,34.58
2022-08-26T13:29:23.074Z,11.15
2022-08-26T13:31:52.335Z,7.72
2022-08-26T13:34:23.006Z,6.05
2022-08-26T13:36:54.249Z,8.15
2022-08-26T13:39:23.289Z,6.78
2022-08-26T13:41:57.475Z,6.30
2022-08-26T13:44:25.362Z,7.20
2022-08-26T13:46:54.084Z,6.18
2022-08-26T13:49:25.172Z,6.78
2022-08-26T13:51:52.986Z,6.60
2022-08-26T13:54:21.329Z,6.65
2022-08-26T13:56:49.429Z,6.80
2022-08-26T13:59:17.660Z,6.53
2022-08-26T14:01:45.670Z,6.30
2022-08-26T14:04:14.469Z,6.50
2022-08-26T14:06:42.523Z,6.75
2022-08-26T14:09:11.452Z,6.35
2022-08-26T14:11:53.855Z,11.48
2022-08-26T14:14:22.803Z,7.68
2022-08-26T14:16:59.779Z,10.77
2022-08-26T14:19:30.184Z,7.65
2022-08-26T14:22:00.765Z,6.77
2022-08-26T14:24:29.373Z,6.95
2022-08-26T14:26:57.798Z,6.28
2022-08-26T14:29:26.423Z,6.68
2022-08-26T14:31:55.872Z,6.75
2022-08-26T14:34:24.967Z,6.53
2022-08-26T14:36:54.446Z,6.32
2022-08-26T14:39:22.511Z,5.93
2022-08-26T14:41:55.000Z,6.38
2022-08-26T14:44:30.600Z,6.55
2022-08-26T14:47:01.251Z,6.63
2022-08-26T14:49:31.287Z,7.32
2022-08-26T14:51:59.166Z,6.30
2022-08-26T14:54:26.960Z,7.55
2022-08-26T14:56:59.640Z,6.65
2022-08-26T14:59:34.132Z,8.88
2022-08-26T15:02:03.645Z,6.63
2022-08-26T15:04:32.379Z,6.97
2022-08-26T15:07:01.096Z,6.22
2022-08-26T15:09:30.984Z,6.93
2022-08-26T15:11:59.270Z,6.50
2022-08-26T15:14:30.937Z,6.30
2022-08-26T15:17:01.635Z,6.38
2022-08-26T15:19:30.608Z,6.95
2022-08-26T15:21:59.010Z,7.28
2022-08-26T15:24:28.983Z,6.82
2022-08-26T15:26:58.365Z,6.80
2022-08-26T15:29:30.290Z,7.43
2022-08-26T15:32:02.175Z,6.75
2022-08-26T15:34:30.038Z,6.90
2022-08-26T15:36:59.121Z,6.55
2022-08-26T15:39:27.746Z,6.72
2022-08-26T15:41:59.842Z,6.55
2022-08-26T15:44:30.524Z,6.57
2022-08-26T15:46:59.129Z,6.35
2022-08-26T15:49:27.889Z,6.95
2022-08-26T15:51:56.545Z,6.88
2022-08-26T15:54:24.591Z,6.72
2022-08-26T15:56:53.153Z,8.98
2022-08-26T15:59:22.665Z,32.67
2022-08-26T16:01:51.799Z,8.52
2022-08-26T16:04:20.611Z,15.10
2022-08-26T16:06:51.591Z,8.82
2022-08-26T16:09:24.450Z,9.02
2022-08-26T16:11:56.293Z,7.07
2022-08-26T16:14:24.563Z,7.47
2022-08-26T16:16:52.710Z,7.05
2022-08-26T16:19:21.419Z,6.32
2022-08-26T16:21:51.411Z,6.55
2022-08-26T16:24:24.841Z,6.55
2022-08-26T16:26:55.564Z,6.93
2022-08-26T16:29:26.982Z,6.63
2022-08-26T16:31:55.225Z,7.40
2022-08-26T16:34:23.489Z,8.75
2022-08-26T16:36:53.145Z,7.45
2022-08-26T16:39:21.068Z,7.95
2022-08-26T16:41:49.310Z,6.82
2022-08-26T16:44:18.018Z,6.95
2022-08-26T16:46:46.317Z,6.65
2022-08-26T16:49:14.563Z,6.85
2022-08-26T16:51:43.025Z,7.00
2022-08-26T16:54:13.135Z,7.05
2022-08-26T16:56:41.665Z,7.22
2022-08-26T16:59:11.780Z,7.18
2022-08-26T17:01:39.813Z,7.47
2022-08-26T17:04:08.791Z,6.63
2022-08-26T17:06:37.129Z,6.93
2022-08-26T17:09:05.311Z,8.75
2022-08-26T17:11:35.555Z,8.13
2022-08-26T17:14:05.209Z,9.07
2022-08-26T17:16:33.367Z,7.78
2022-08-26T17:19:02.496Z,6.20
2022-08-26T17:21:33.500Z,6.72
2022-08-26T17:24:03.341Z,6.70
2022-08-26T17:26:31.880Z,6.97
2022-08-26T17:29:00.177Z,7.00
2022-08-26T17:31:28.865Z,8.00
2022-08-26T17:33:56.890Z,6.90
2022-08-26T17:36:28.121Z,6.75
2022-08-26T17:38:58.443Z,6.95
2022-08-26T17:41:29.251Z,7.20
2022-08-26T17:46:25.941Z,6.40
2022-08-26T17:48:57.294Z,5.97
2022-08-26T17:51:25.573Z,6.60
2022-08-26T17:53:54.419Z,6.70
2022-08-26T17:56:25.849Z,6.75
2022-08-26T17:58:57.008Z,6.40
2022-08-26T18:01:26.872Z,6.68
2022-08-26T18:06:23.555Z,7.40
2022-08-26T18:08:52.584Z,6.90
2022-08-26T18:11:23.171Z,7.63
2022-08-26T18:13:54.137Z,6.97
2022-08-26T18:16:22.029Z,6.60
2022-08-26T18:18:53.468Z,6.30
2022-08-26T18:21:25.384Z,6.15
2022-08-26T18:23:54.290Z,7.00
2022-08-26T18:26:28.188Z,6.38
2022-08-26T18:28:57.613Z,5.68
2022-08-26T18:31:26.573Z,7.15
2022-08-26T18:33:55.605Z,6.60
2022-08-26T18:36:27.468Z,5.65
2022-08-26T18:38:56.262Z,6.18
2022-08-26T18:41:27.798Z,6.32
2022-08-26T18:43:57.295Z,6.35
2022-08-26T18:46:30.971Z,6.10
2022-08-26T18:48:59.510Z,5.90
2022-08-26T18:51:30.265Z,6.45
2022-08-26T18:54:02.814Z,6.15
2022-08-26T18:56:31.256Z,6.43
2022-08-26T18:58:59.973Z,6.50
2022-08-26T19:01:30.456Z,6.35
2022-08-26T19:06:32.947Z,6.13
2022-08-26T19:09:01.771Z,5.95
2022-08-26T19:11:31.301Z,6.68
2022-08-26T19:14:02.783Z,7.18
2022-08-26T19:16:32.372Z,7.47
2022-08-26T19:19:01.516Z,9.55
2022-08-26T19:21:31.747Z,9.05
2022-08-26T19:24:02.614Z,8.68
2022-08-26T19:26:31.700Z,7.90
2022-08-26T19:29:00.426Z,9.27
2022-08-26T19:31:28.742Z,8.45
2022-08-26T19:33:58.115Z,8.95
2022-08-26T19:36:30.135Z,8.65
2022-08-26T19:38:58.459Z,8.90
2022-08-26T19:41:36.659Z,9.15
2022-08-26T19:44:13.277Z,9.40
2022-08-26T19:46:41.715Z,8.13
2022-08-26T19:49:10.300Z,8.10
2022-08-26T19:51:38.356Z,9.50
2022-08-26T19:54:06.599Z,9.98
2022-08-26T19:56:37.273Z,10.00
2022-08-26T19:59:05.860Z,9.88
2022-08-26T20:01:34.834Z,10.90
2022-08-26T20:04:04.210Z,12.50
2022-08-26T20:06:32.721Z,23.52
2022-08-26T20:09:00.675Z,20.17
2022-08-26T20:11:29.405Z,20.00
2022-08-26T20:13:57.435Z,42.03
2022-08-26T20:16:25.479Z,28.17
2022-08-26T20:19:12.331Z,19.33
2022-08-26T20:21:41.467Z,12.55
2022-08-26T20:24:14.820Z,16.60
2022-08-26T20:26:45.019Z,34.10
2022-08-26T20:29:16.731Z,19.08
2022-08-26T20:31:46.232Z,21.17
2022-08-26T20:34:16.574Z,65.55
2022-08-26T20:36:46.089Z,36.72
2022-08-26T20:39:14.714Z,15.80
2022-08-26T20:41:43.989Z,21.80
2022-08-26T20:44:13.896Z,11.75
2022-08-26T20:46:44.530Z,14.77
2022-08-26T20:49:13.418Z,15.55
2022-08-26T20:51:43.628Z,25.90
2022-08-26T20:54:13.165Z,14.18
2022-08-26T20:56:41.529Z,11.13
2022-08-26T20:59:10.314Z,12.23
2022-08-26T21:01:42.080Z,11.57
2022-08-26T21:04:16.297Z,10.07
2022-08-26T21:06:49.906Z,11.70
2022-08-26T21:09:22.453Z,10.38
2022-08-26T21:11:51.420Z,11.07
2022-08-26T21:14:20.639Z,17.70
2022-08-26T21:16:49.261Z,9.52
2022-08-26T21:19:19.441Z,9.52
2022-08-26T21:21:48.576Z,10.68
2022-08-26T21:24:17.019Z,9.05
2022-08-26T21:26:45.507Z,9.70
2022-08-26T21:29:14.337Z,9.50
2022-08-26T21:31:46.354Z,9.57
2022-08-26T21:34:20.299Z,10.75
2022-08-26T21:36:48.910Z,9.75
2022-08-26T21:39:17.553Z,10.00
2022-08-26T21:41:47.401Z,10.82
2022-08-26T21:44:17.703Z,10.13
2022-08-26T21:46:47.046Z,11.85
2022-08-26T21:49:16.239Z,9.70
2022-08-26T21:51:48.147Z,10.23
2022-08-26T21:54:16.576Z,10.02
2022-08-26T21:56:48.361Z,10.50
2022-08-26T21:59:18.779Z,10.30
2022-08-26T22:01:48.611Z,9.65
2022-08-26T22:04:18.248Z,9.80
2022-08-26T22:06:49.523Z,9.27
2022-08-26T22:11:48.170Z,9.50
2022-08-26T22:14:18.235Z,8.63
2022-08-26T22:16:50.462Z,8.85
2022-08-26T22:19:20.627Z,9.07
2022-08-26T22:21:54.470Z,9.82
2022-08-26T22:24:24.857Z,8.48
2022-08-26T22:26:54.605Z,8.57
2022-08-26T22:29:24.473Z,8.55
2022-08-26T22:31:52.828Z,8.85
2022-08-26T22:34:22.974Z,9.07
2022-08-26T22:36:51.937Z,9.27
2022-08-26T22:39:23.641Z,9.73
2022-08-26T22:41:54.835Z,9.15
2022-08-26T22:44:22.838Z,9.82
2022-08-26T22:46:54.326Z,9.25
2022-08-26T22:49:23.062Z,8.30
2022-08-26T22:51:52.163Z,8.15
2022-08-26T22:54:21.126Z,8.88
2022-08-26T22:56:49.165Z,7.88
2022-08-26T22:59:17.165Z,8.82
2022-08-26T23:01:47.515Z,8.90
2022-08-26T23:04:16.672Z,8.05
2022-08-26T23:06:47.672Z,8.80
2022-08-26T23:09:18.405Z,8.60
2022-08-26T23:11:49.807Z,8.63
2022-08-26T23:14:18.881Z,8.40
2022-08-26T23:16:47.899Z,8.75
2022-08-26T23:19:18.897Z,8.70
2022-08-26T23:22:41.453Z,8.63
2022-08-26T23:25:11.416Z,8.77
2022-08-26T23:27:42.417Z,8.75
2022-08-26T23:30:16.517Z,8.23
2022-08-26T23:32:45.123Z,8.63
2022-08-26T23:35:14.164Z,8.18
2022-08-26T23:37:46.071Z,7.93
2022-08-26T23:40:19.420Z,7.65
2022-08-26T23:42:48.427Z,8.52
2022-08-26T23:45:18.600Z,8.07
2022-08-26T23:47:47.401Z,7.60
2022-08-26T23:50:15.944Z,8.65
2022-08-26T23:53:02.669Z,8.13
2022-08-26T23:55:34.091Z,8.50
2022-08-26T23:58:02.369Z,8.55
